sensor_id;sensor_type;location;lat;lon;timestamp;pressure;altitude;pressure_sealevel;temperature;humidity
71151;BME280;59071;42.138;24.768;2023-03-16T00:02:23;98574.25;;;11.19;51.47
71151;BME280;59071;42.138;24.768;2023-03-16T00:04:48;98571.69;;;11.24;51.86
71151;BME280;59071;42.138;24.768;2023-03-16T00:07:14;98574.75;;;10.92;53.02
71151;BME280;59071;42.138;24.768;2023-03-16T00:09:39;98572.41;;;11.08;52.86
71151;BME280;59071;42.138;24.768;2023-03-16T00:12:06;98573.63;;;10.88;54.64
71151;BME280;59071;42.138;24.768;2023-03-16T00:14:32;98567.34;;;10.94;53.84
71151;BME280;59071;42.138;24.768;2023-03-16T00:16:59;98584.50;;;10.99;53.79
71151;BME280;59071;42.138;24.768;2023-03-16T00:19:25;98575.69;;;10.98;55.14
71151;BME280;59071;42.138;24.768;2023-03-16T00:21:50;98569.16;;;11.18;54.13
71151;BME280;59071;42.138;24.768;2023-03-16T00:24:16;98567.56;;;11.05;55.06
71151;BME280;59071;42.138;24.768;2023-03-16T00:26:42;98577.75;;;10.96;55.35
71151;BME280;59071;42.138;24.768;2023-03-16T00:29:07;98570.81;;;11.07;55.12
71151;BME280;59071;42.138;24.768;2023-03-16T00:31:33;98575.13;;;10.84;56.57
71151;BME280;59071;42.138;24.768;2023-03-16T00:33:59;98573.13;;;11.03;56.22
71151;BME280;59071;42.138;24.768;2023-03-16T00:36:26;98567.50;;;10.88;57.33
71151;BME280;59071;42.138;24.768;2023-03-16T00:38:52;98579.97;;;10.75;56.91
71151;BME280;59071;42.138;24.768;2023-03-16T00:41:18;98579.31;;;10.68;58.22
71151;BME280;59071;42.138;24.768;2023-03-16T00:43:43;98581.38;;;10.78;58.11
71151;BME280;59071;42.138;24.768;2023-03-16T00:46:13;98582.09;;;10.85;57.38
71151;BME280;59071;42.138;24.768;2023-03-16T00:48:40;98589.03;;;10.74;57.75
71151;BME280;59071;42.138;24.768;2023-03-16T00:51:07;98584.75;;;10.85;58.77
71151;BME280;59071;42.138;24.768;2023-03-16T00:53:33;98591.03;;;11.08;57.73
71151;BME280;59071;42.138;24.768;2023-03-16T00:55:59;98592.38;;;10.58;59.01
71151;BME280;59071;42.138;24.768;2023-03-16T00:58:28;98589.81;;;10.87;58.35
71151;BME280;59071;42.138;24.768;2023-03-16T01:00:53;98597.56;;;10.88;58.15
71151;BME280;59071;42.138;24.768;2023-03-16T01:03:21;98597.56;;;11.12;57.65
71151;BME280;59071;42.138;24.768;2023-03-16T01:05:46;98603.66;;;11.24;58.10
71151;BME280;59071;42.138;24.768;2023-03-16T01:08:11;98605.91;;;10.80;58.88
71151;BME280;59071;42.138;24.768;2023-03-16T01:10:37;98596.75;;;10.52;60.68
71151;BME280;59071;42.138;24.768;2023-03-16T01:13:04;98599.69;;;10.63;60.78
71151;BME280;59071;42.138;24.768;2023-03-16T01:15:31;98600.47;;;10.75;60.16
71151;BME280;59071;42.138;24.768;2023-03-16T01:17:58;98599.31;;;10.83;60.18
71151;BME280;59071;42.138;24.768;2023-03-16T01:20:24;98601.53;;;10.74;60.27
71151;BME280;59071;42.138;24.768;2023-03-16T01:22:50;98604.16;;;10.62;60.64
71151;BME280;59071;42.138;24.768;2023-03-16T01:25:16;98608.34;;;10.93;59.95
71151;BME280;59071;42.138;24.768;2023-03-16T01:27:42;98613.44;;;10.60;61.01
71151;BME280;59071;42.138;24.768;2023-03-16T01:30:08;98618.75;;;10.36;62.23
71151;BME280;59071;42.138;24.768;2023-03-16T01:32:36;98618.31;;;10.51;61.89
71151;BME280;59071;42.138;24.768;2023-03-16T01:35:02;98619.53;;;9.94;63.74
71151;BME280;59071;42.138;24.768;2023-03-16T01:37:28;98630.31;;;10.00;63.70
71151;BME280;59071;42.138;24.768;2023-03-16T01:39:54;98627.47;;;10.13;63.58
71151;BME280;59071;42.138;24.768;2023-03-16T01:42:19;98625.63;;;9.83;64.53
71151;BME280;59071;42.138;24.768;2023-03-16T01:44:49;98625.78;;;9.39;65.29
71151;BME280;59071;42.138;24.768;2023-03-16T01:47:14;98628.91;;;9.67;64.43
71151;BME280;59071;42.138;24.768;2023-03-16T01:49:39;98623.19;;;9.82;63.71
71151;BME280;59071;42.138;24.768;2023-03-16T01:52:06;98628.53;;;9.93;62.82
71151;BME280;59071;42.138;24.768;2023-03-16T01:54:36;98634.09;;;9.43;63.05
71151;BME280;59071;42.138;24.768;2023-03-16T01:57:05;98634.91;;;9.44;63.48
71151;BME280;59071;42.138;24.768;2023-03-16T01:59:42;98636.91;;;9.48;62.50
71151;BME280;59071;42.138;24.768;2023-03-16T02:02:09;98640.31;;;9.18;63.28
71151;BME280;59071;42.138;24.768;2023-03-16T02:04:57;98633.28;;;9.06;63.29
71151;BME280;59071;42.138;24.768;2023-03-16T02:07:26;98640.25;;;9.07;63.01
71151;BME280;59071;42.138;24.768;2023-03-16T02:09:53;98652.47;;;8.89;63.29
71151;BME280;59071;42.138;24.768;2023-03-16T02:12:20;98651.31;;;8.78;63.12
71151;BME280;59071;42.138;24.768;2023-03-16T02:14:46;98660.00;;;9.11;62.21
71151;BME280;59071;42.138;24.768;2023-03-16T02:17:15;98666.44;;;9.22;61.61
71151;BME280;59071;42.138;24.768;2023-03-16T02:20:27;98662.03;;;8.90;62.67
71151;BME280;59071;42.138;24.768;2023-03-16T02:22:40;98665.13;;;8.87;62.87
71151;BME280;59071;42.138;24.768;2023-03-16T02:25:07;98673.53;;;8.84;63.24
71151;BME280;59071;42.138;24.768;2023-03-16T02:27:38;98671.50;;;9.05;62.61
71151;BME280;59071;42.138;24.768;2023-03-16T02:30:12;98668.72;;;8.93;63.37
71151;BME280;59071;42.138;24.768;2023-03-16T02:32:37;98678.16;;;8.89;63.34
71151;BME280;59071;42.138;24.768;2023-03-16T02:35:04;98667.19;;;8.60;64.81
71151;BME280;59071;42.138;24.768;2023-03-16T02:37:29;98676.50;;;8.69;64.75
71151;BME280;59071;42.138;24.768;2023-03-16T02:39:57;98677.97;;;8.65;65.79
71151;BME280;59071;42.138;24.768;2023-03-16T02:42:23;98682.50;;;8.83;65.07
71151;BME280;59071;42.138;24.768;2023-03-16T02:44:57;98677.97;;;8.65;64.64
71151;BME280;59071;42.138;24.768;2023-03-16T02:47:31;98680.91;;;8.57;64.81
71151;BME280;59071;42.138;24.768;2023-03-16T02:49:57;98682.94;;;8.80;64.18
71151;BME280;59071;42.138;24.768;2023-03-16T02:52:23;98689.16;;;8.67;64.50
71151;BME280;59071;42.138;24.768;2023-03-16T02:54:48;98695.63;;;8.78;64.24
71151;BME280;59071;42.138;24.768;2023-03-16T02:57:13;98679.22;;;8.31;65.17
71151;BME280;59071;42.138;24.768;2023-03-16T02:59:39;98693.50;;;8.61;63.95
71151;BME280;59071;42.138;24.768;2023-03-16T03:02:05;98704.63;;;8.07;65.41
71151;BME280;59071;42.138;24.768;2023-03-16T03:04:31;98708.72;;;8.02;65.62
71151;BME280;59071;42.138;24.768;2023-03-16T03:06:57;98717.41;;;8.16;64.43
71151;BME280;59071;42.138;24.768;2023-03-16T03:09:28;98715.03;;;8.08;64.25
71151;BME280;59071;42.138;24.768;2023-03-16T03:11:53;98723.09;;;8.27;63.30
71151;BME280;59071;42.138;24.768;2023-03-16T03:14:18;98725.22;;;8.43;62.65
71151;BME280;59071;42.138;24.768;2023-03-16T03:16:43;98730.81;;;8.28;63.05
71151;BME280;59071;42.138;24.768;2023-03-16T03:19:10;98722.91;;;7.83;63.95
71151;BME280;59071;42.138;24.768;2023-03-16T03:21:35;98725.09;;;7.86;63.58
71151;BME280;59071;42.138;24.768;2023-03-16T03:24:01;98735.75;;;7.79;63.34
71151;BME280;59071;42.138;24.768;2023-03-16T03:26:26;98725.50;;;7.90;63.61
71151;BME280;59071;42.138;24.768;2023-03-16T03:28:52;98739.25;;;7.73;64.26
71151;BME280;59071;42.138;24.768;2023-03-16T03:31:18;98729.59;;;7.86;64.22
71151;BME280;59071;42.138;24.768;2023-03-16T03:33:43;98740.41;;;7.84;64.04
71151;BME280;59071;42.138;24.768;2023-03-16T03:36:09;98743.31;;;7.69;64.40
71151;BME280;59071;42.138;24.768;2023-03-16T03:38:35;98748.63;;;7.69;64.46
71151;BME280;59071;42.138;24.768;2023-03-16T03:41:01;98744.13;;;7.63;64.56
71151;BME280;59071;42.138;24.768;2023-03-16T03:43:26;98746.03;;;7.56;65.21
71151;BME280;59071;42.138;24.768;2023-03-16T03:45:58;98757.41;;;7.50;66.07
71151;BME280;59071;42.138;24.768;2023-03-16T03:48:23;98757.81;;;7.60;64.86
71151;BME280;59071;42.138;24.768;2023-03-16T03:50:49;98748.66;;;7.56;65.47
71151;BME280;59071;42.138;24.768;2023-03-16T03:53:14;98767.63;;;7.33;66.17
71151;BME280;59071;42.138;24.768;2023-03-16T03:55:40;98773.84;;;7.78;64.78
71151;BME280;59071;42.138;24.768;2023-03-16T03:58:05;98769.38;;;7.72;64.94
71151;BME280;59071;42.138;24.768;2023-03-16T04:00:31;98771.13;;;7.92;64.28
71151;BME280;59071;42.138;24.768;2023-03-16T04:02:56;98774.63;;;7.92;64.52
71151;BME280;59071;42.138;24.768;2023-03-16T04:05:21;98766.94;;;7.77;64.96
71151;BME280;59071;42.138;24.768;2023-03-16T04:07:49;98772.03;;;7.79;64.54
71151;BME280;59071;42.138;24.768;2023-03-16T04:10:19;98775.06;;;7.76;64.65
71151;BME280;59071;42.138;24.768;2023-03-16T04:12:45;98778.78;;;7.55;65.24
71151;BME280;59071;42.138;24.768;2023-03-16T04:15:10;98782.25;;;7.55;64.56
71151;BME280;59071;42.138;24.768;2023-03-16T04:17:36;98782.91;;;7.37;64.60
71151;BME280;59071;42.138;24.768;2023-03-16T04:20:01;98785.34;;;7.39;64.62
71151;BME280;59071;42.138;24.768;2023-03-16T04:22:30;98794.66;;;7.68;63.74
71151;BME280;59071;42.138;24.768;2023-03-16T04:24:55;98801.22;;;7.39;64.09
71151;BME280;59071;42.138;24.768;2023-03-16T04:27:21;98810.38;;;7.50;63.68
71151;BME280;59071;42.138;24.768;2023-03-16T04:29:46;98803.22;;;7.57;63.18
71151;BME280;59071;42.138;24.768;2023-03-16T04:32:11;98807.75;;;7.16;63.97
71151;BME280;59071;42.138;24.768;2023-03-16T04:34:36;98810.59;;;7.08;64.79
71151;BME280;59071;42.138;24.768;2023-03-16T04:37:03;98807.75;;;7.16;63.79
71151;BME280;59071;42.138;24.768;2023-03-16T04:39:28;98801.25;;;7.12;64.53
71151;BME280;59071;42.138;24.768;2023-03-16T04:41:54;98814.66;;;7.17;64.08
71151;BME280;59071;42.138;24.768;2023-03-16T04:44:19;98815.88;;;7.08;64.17
71151;BME280;59071;42.138;24.768;2023-03-16T04:46:44;98813.22;;;7.21;63.97
71151;BME280;59071;42.138;24.768;2023-03-16T04:49:10;98822.41;;;7.19;63.43
71151;BME280;59071;42.138;24.768;2023-03-16T04:51:35;98818.75;;;7.27;63.09
71151;BME280;59071;42.138;24.768;2023-03-16T04:54:02;98828.50;;;7.13;63.17
71151;BME280;59071;42.138;24.768;2023-03-16T04:56:27;98831.16;;;7.06;62.98
71151;BME280;59071;42.138;24.768;2023-03-16T04:58:52;98839.91;;;7.27;62.75
71151;BME280;59071;42.138;24.768;2023-03-16T05:01:17;98853.94;;;7.00;63.38
71151;BME280;59071;42.138;24.768;2023-03-16T05:03:43;98845.38;;;6.98;63.15
71151;BME280;59071;42.138;24.768;2023-03-16T05:06:09;98847.03;;;6.99;62.85
71151;BME280;59071;42.138;24.768;2023-03-16T05:08:35;98860.88;;;7.01;62.35
71151;BME280;59071;42.138;24.768;2023-03-16T05:11:01;98868.19;;;6.99;63.07
71151;BME280;59071;42.138;24.768;2023-03-16T05:13:26;98868.19;;;7.19;61.44
71151;BME280;59071;42.138;24.768;2023-03-16T05:15:52;98879.00;;;7.18;60.99
71151;BME280;59071;42.138;24.768;2023-03-16T05:18:20;98873.91;;;7.30;61.00
71151;BME280;59071;42.138;24.768;2023-03-16T05:20:48;98885.72;;;7.27;60.63
71151;BME280;59071;42.138;24.768;2023-03-16T05:23:13;98887.53;;;6.93;61.32
71151;BME280;59071;42.138;24.768;2023-03-16T05:25:39;98900.13;;;6.98;60.51
71151;BME280;59071;42.138;24.768;2023-03-16T05:28:04;98896.09;;;7.09;59.95
71151;BME280;59071;42.138;24.768;2023-03-16T05:30:30;98904.97;;;6.81;61.18
71151;BME280;59071;42.138;24.768;2023-03-16T05:32:55;98910.00;;;6.62;61.96
71151;BME280;59071;42.138;24.768;2023-03-16T05:35:22;98898.06;;;6.80;61.72
71151;BME280;59071;42.138;24.768;2023-03-16T05:37:47;98902.56;;;6.93;60.69
71151;BME280;59071;42.138;24.768;2023-03-16T05:40:13;98914.63;;;7.09;60.56
71151;BME280;59071;42.138;24.768;2023-03-16T05:42:45;98904.63;;;7.04;60.01
71151;BME280;59071;42.138;24.768;2023-03-16T05:45:11;98909.72;;;7.05;60.20
71151;BME280;59071;42.138;24.768;2023-03-16T05:47:36;98922.28;;;6.90;60.39
71151;BME280;59071;42.138;24.768;2023-03-16T05:50:02;98921.09;;;6.99;60.11
71151;BME280;59071;42.138;24.768;2023-03-16T05:52:28;98890.66;;;6.55;60.33
71151;BME280;59071;42.138;24.768;2023-03-16T05:54:53;98915.59;;;6.94;60.25
71151;BME280;59071;42.138;24.768;2023-03-16T05:57:18;98921.72;;;7.01;59.73
71151;BME280;59071;42.138;24.768;2023-03-16T05:59:43;98920.25;;;6.92;59.27
71151;BME280;59071;42.138;24.768;2023-03-16T06:02:09;98947.78;;;7.04;59.25
71151;BME280;59071;42.138;24.768;2023-03-16T06:04:34;98919.25;;;6.93;59.99
71151;BME280;59071;42.138;24.768;2023-03-16T06:07:00;98917.81;;;6.91;60.59
71151;BME280;59071;42.138;24.768;2023-03-16T06:09:26;98933.53;;;7.05;59.82
71151;BME280;59071;42.138;24.768;2023-03-16T06:11:51;98938.22;;;7.17;60.38
71151;BME280;59071;42.138;24.768;2023-03-16T06:14:17;98934.00;;;7.49;59.47
71151;BME280;59071;42.138;24.768;2023-03-16T06:16:42;98949.06;;;7.35;60.19
71151;BME280;59071;42.138;24.768;2023-03-16T06:19:07;98943.53;;;7.30;59.46
71151;BME280;59071;42.138;24.768;2023-03-16T06:21:33;98942.25;;;7.06;59.84
71151;BME280;59071;42.138;24.768;2023-03-16T06:23:58;98953.66;;;7.00;59.38
71151;BME280;59071;42.138;24.768;2023-03-16T06:26:23;98957.56;;;7.11;59.30
71151;BME280;59071;42.138;24.768;2023-03-16T06:28:48;98959.19;;;7.18;58.79
71151;BME280;59071;42.138;24.768;2023-03-16T06:31:14;98948.63;;;7.25;58.58
71151;BME280;59071;42.138;24.768;2023-03-16T06:33:39;98938.59;;;6.94;59.38
71151;BME280;59071;42.138;24.768;2023-03-16T06:36:05;98981.34;;;7.04;59.87
71151;BME280;59071;42.138;24.768;2023-03-16T06:38:31;98978.97;;;7.36;59.06
71151;BME280;59071;42.138;24.768;2023-03-16T06:40:56;98983.25;;;7.30;58.19
71151;BME280;59071;42.138;24.768;2023-03-16T06:43:21;98990.16;;;7.24;58.07
71151;BME280;59071;42.138;24.768;2023-03-16T06:45:46;98988.28;;;7.05;58.96
71151;BME280;59071;42.138;24.768;2023-03-16T06:48:12;98993.22;;;7.28;58.29
71151;BME280;59071;42.138;24.768;2023-03-16T06:50:37;98993.44;;;7.33;57.89
71151;BME280;59071;42.138;24.768;2023-03-16T06:53:02;98993.47;;;7.47;57.35
71151;BME280;59071;42.138;24.768;2023-03-16T06:55:28;99006.06;;;7.38;58.31
71151;BME280;59071;42.138;24.768;2023-03-16T06:57:53;99006.69;;;8.53;59.76
71151;BME280;59071;42.138;24.768;2023-03-16T07:00:18;99003.84;;;9.45;54.11
71151;BME280;59071;42.138;24.768;2023-03-16T07:02:44;99007.28;;;9.46;53.62
71151;BME280;59071;42.138;24.768;2023-03-16T07:05:09;99015.47;;;9.76;52.41
71151;BME280;59071;42.138;24.768;2023-03-16T07:07:40;99021.63;;;9.38;51.58
71151;BME280;59071;42.138;24.768;2023-03-16T07:10:08;99015.44;;;8.54;53.49
71151;BME280;59071;42.138;24.768;2023-03-16T07:12:33;99036.22;;;8.70;53.28
71151;BME280;59071;42.138;24.768;2023-03-16T07:14:59;99020.06;;;8.78;53.27
71151;BME280;59071;42.138;24.768;2023-03-16T07:17:25;99027.91;;;8.53;53.48
71151;BME280;59071;42.138;24.768;2023-03-16T07:19:50;99022.81;;;8.52;53.90
71151;BME280;59071;42.138;24.768;2023-03-16T07:22:15;99028.47;;;8.69;53.40
71151;BME280;59071;42.138;24.768;2023-03-16T07:24:41;99040.69;;;8.70;52.94
71151;BME280;59071;42.138;24.768;2023-03-16T07:27:07;99040.78;;;8.10;54.22
71151;BME280;59071;42.138;24.768;2023-03-16T07:29:33;99038.94;;;8.30;53.62
71151;BME280;59071;42.138;24.768;2023-03-16T07:31:58;99039.53;;;8.46;53.79
71151;BME280;59071;42.138;24.768;2023-03-16T07:34:23;99051.34;;;8.36;53.60
71151;BME280;59071;42.138;24.768;2023-03-16T07:36:48;99048.72;;;8.23;53.82
71151;BME280;59071;42.138;24.768;2023-03-16T07:39:16;99042.19;;;8.46;53.15
71151;BME280;59071;42.138;24.768;2023-03-16T07:41:42;99038.72;;;8.45;53.28
71151;BME280;59071;42.138;24.768;2023-03-16T07:44:08;99043.19;;;8.38;53.87
71151;BME280;59071;42.138;24.768;2023-03-16T07:46:35;99042.41;;;8.44;53.68
71151;BME280;59071;42.138;24.768;2023-03-16T07:49:00;99051.75;;;8.60;53.22
71151;BME280;59071;42.138;24.768;2023-03-16T07:51:25;99041.94;;;8.67;52.80
71151;BME280;59071;42.138;24.768;2023-03-16T07:53:51;99043.31;;;8.83;52.95
71151;BME280;59071;42.138;24.768;2023-03-16T07:56:16;99039.06;;;8.75;52.80
71151;BME280;59071;42.138;24.768;2023-03-16T07:58:41;99050.91;;;8.73;52.80
71151;BME280;59071;42.138;24.768;2023-03-16T08:01:07;99041.75;;;8.69;53.17
71151;BME280;59071;42.138;24.768;2023-03-16T08:03:33;99043.16;;;8.78;53.08
71151;BME280;59071;42.138;24.768;2023-03-16T08:05:58;99049.13;;;8.53;53.38
71151;BME280;59071;42.138;24.768;2023-03-16T08:08:23;99054.97;;;8.75;53.19
71151;BME280;59071;42.138;24.768;2023-03-16T08:10:49;99051.09;;;8.71;53.31
71151;BME280;59071;42.138;24.768;2023-03-16T08:13:16;99040.41;;;8.98;52.63
71151;BME280;59071;42.138;24.768;2023-03-16T08:15:44;99042.63;;;9.08;52.04
71151;BME280;59071;42.138;24.768;2023-03-16T08:18:09;99054.13;;;9.72;50.80
71151;BME280;59071;42.138;24.768;2023-03-16T08:20:35;99064.34;;;9.36;51.51
71151;BME280;59071;42.138;24.768;2023-03-16T08:23:00;99055.88;;;9.53;50.90
71151;BME280;59071;42.138;24.768;2023-03-16T08:25:25;99064.19;;;9.95;49.96
71151;BME280;59071;42.138;24.768;2023-03-16T08:27:50;99065.28;;;9.87;49.54
71151;BME280;59071;42.138;24.768;2023-03-16T08:30:17;99074.59;;;9.96;49.29
71151;BME280;59071;42.138;24.768;2023-03-16T08:32:42;99076.78;;;10.06;49.26
71151;BME280;59071;42.138;24.768;2023-03-16T08:35:09;99082.97;;;10.00;49.53
71151;BME280;59071;42.138;24.768;2023-03-16T08:37:34;99082.28;;;9.79;49.41
71151;BME280;59071;42.138;24.768;2023-03-16T08:40:00;99087.25;;;10.01;49.01
71151;BME280;59071;42.138;24.768;2023-03-16T08:42:26;99098.44;;;10.10;48.85
71151;BME280;59071;42.138;24.768;2023-03-16T08:44:53;99088.75;;;9.58;49.31
71151;BME280;59071;42.138;24.768;2023-03-16T08:47:20;99088.56;;;9.92;49.17
71151;BME280;59071;42.138;24.768;2023-03-16T08:49:45;99076.84;;;10.00;48.60
71151;BME280;59071;42.138;24.768;2023-03-16T08:52:10;99089.41;;;9.86;48.74
71151;BME280;59071;42.138;24.768;2023-03-16T08:54:37;99089.91;;;10.01;48.44
71151;BME280;59071;42.138;24.768;2023-03-16T08:57:02;99083.16;;;9.73;48.58
71151;BME280;59071;42.138;24.768;2023-03-16T08:59:28;99087.09;;;9.64;48.91
71151;BME280;59071;42.138;24.768;2023-03-16T09:01:53;99082.31;;;9.41;49.17
71151;BME280;59071;42.138;24.768;2023-03-16T09:04:18;99079.13;;;9.64;48.89
71151;BME280;59071;42.138;24.768;2023-03-16T09:06:45;99094.25;;;9.64;49.02
71151;BME280;59071;42.138;24.768;2023-03-16T09:09:11;99082.47;;;9.85;48.70
71151;BME280;59071;42.138;24.768;2023-03-16T09:11:37;99093.13;;;10.60;47.95
71151;BME280;59071;42.138;24.768;2023-03-16T09:14:02;99094.56;;;10.63;46.78
71151;BME280;59071;42.138;24.768;2023-03-16T09:16:28;99098.63;;;10.65;46.66
71151;BME280;59071;42.138;24.768;2023-03-16T09:18:55;99088.44;;;10.37;47.34
71151;BME280;59071;42.138;24.768;2023-03-16T09:21:20;99095.78;;;10.10;47.76
71151;BME280;59071;42.138;24.768;2023-03-16T09:23:45;99091.94;;;10.56;46.58
71151;BME280;59071;42.138;24.768;2023-03-16T09:26:11;99095.25;;;10.26;47.76
71151;BME280;59071;42.138;24.768;2023-03-16T09:28:37;99093.81;;;10.30;47.83
71151;BME280;59071;42.138;24.768;2023-03-16T09:31:05;99096.50;;;10.49;47.42
71151;BME280;59071;42.138;24.768;2023-03-16T09:33:31;99086.84;;;10.54;46.21
71151;BME280;59071;42.138;24.768;2023-03-16T09:35:56;99097.47;;;10.54;46.65
71151;BME280;59071;42.138;24.768;2023-03-16T09:38:22;99101.09;;;10.60;46.14
71151;BME280;59071;42.138;24.768;2023-03-16T09:40:54;99098.31;;;10.73;45.78
71151;BME280;59071;42.138;24.768;2023-03-16T09:46:10;99091.53;;;10.96;45.36
71151;BME280;59071;42.138;24.768;2023-03-16T09:48:38;99107.66;;;11.01;45.23
71151;BME280;59071;42.138;24.768;2023-03-16T09:51:06;99100.25;;;10.85;45.17
71151;BME280;59071;42.138;24.768;2023-03-16T09:53:32;99100.13;;;11.17;45.11
71151;BME280;59071;42.138;24.768;2023-03-16T09:56:00;99094.03;;;11.46;44.47
71151;BME280;59071;42.138;24.768;2023-03-16T09:58:27;99096.66;;;11.16;45.10
71151;BME280;59071;42.138;24.768;2023-03-16T10:06:09;99109.81;;;11.11;44.75
71151;BME280;59071;42.138;24.768;2023-03-16T10:08:37;99117.16;;;11.46;44.12
71151;BME280;59071;42.138;24.768;2023-03-16T10:11:11;99111.06;;;11.27;44.68
71151;BME280;59071;42.138;24.768;2023-03-16T10:13:40;99099.84;;;11.06;44.74
71151;BME280;59071;42.138;24.768;2023-03-16T10:16:18;99110.31;;;11.38;43.72
71151;BME280;59071;42.138;24.768;2023-03-16T10:18:45;99100.94;;;11.66;43.36
71151;BME280;59071;42.138;24.768;2023-03-16T10:21:12;99114.13;;;11.61;43.24
71151;BME280;59071;42.138;24.768;2023-03-16T10:23:38;99113.72;;;12.06;43.40
71151;BME280;59071;42.138;24.768;2023-03-16T10:26:08;99098.44;;;11.52;43.17
71151;BME280;59071;42.138;24.768;2023-03-16T10:28:37;99109.19;;;12.06;43.02
71151;BME280;59071;42.138;24.768;2023-03-16T10:31:02;99111.94;;;12.30;42.39
71151;BME280;59071;42.138;24.768;2023-03-16T10:33:29;99107.38;;;13.01;41.45
71151;BME280;59071;42.138;24.768;2023-03-16T10:36:01;99112.50;;;12.79;40.96
71151;BME280;59071;42.138;24.768;2023-03-16T10:40:57;99105.75;;;13.81;39.23
71151;BME280;59071;42.138;24.768;2023-03-16T10:43:23;99106.00;;;13.51;39.58
71151;BME280;59071;42.138;24.768;2023-03-16T10:45:49;99113.44;;;13.49;39.39
71151;BME280;59071;42.138;24.768;2023-03-16T10:48:18;99104.47;;;13.03;39.86
71151;BME280;59071;42.138;24.768;2023-03-16T10:50:48;99106.28;;;13.38;39.79
71151;BME280;59071;42.138;24.768;2023-03-16T10:53:35;99112.94;;;13.00;40.12
71151;BME280;59071;42.138;24.768;2023-03-16T10:56:01;99105.19;;;12.39;41.67
71151;BME280;59071;42.138;24.768;2023-03-16T10:58:30;99112.75;;;12.42;40.81
71151;BME280;59071;42.138;24.768;2023-03-16T11:00:56;99113.72;;;13.36;39.64
71151;BME280;59071;42.138;24.768;2023-03-16T11:03:37;99098.16;;;13.33;39.62
71151;BME280;59071;42.138;24.768;2023-03-16T11:06:03;99093.13;;;13.48;39.18
71151;BME280;59071;42.138;24.768;2023-03-16T11:08:33;99092.09;;;12.73;40.02
71151;BME280;59071;42.138;24.768;2023-03-16T11:10:59;99092.91;;;12.62;40.49
71151;BME280;59071;42.138;24.768;2023-03-16T11:13:33;99101.81;;;13.03;39.80
71151;BME280;59071;42.138;24.768;2023-03-16T11:16:03;99097.06;;;12.93;40.15
71151;BME280;59071;42.138;24.768;2023-03-16T11:18:31;99095.06;;;13.12;39.65
71151;BME280;59071;42.138;24.768;2023-03-16T11:21:02;99079.72;;;13.07;39.49
71151;BME280;59071;42.138;24.768;2023-03-16T11:23:31;99102.28;;;12.88;40.36
71151;BME280;59071;42.138;24.768;2023-03-16T11:25:57;99094.22;;;13.23;40.10
71151;BME280;59071;42.138;24.768;2023-03-16T11:31:05;99087.72;;;13.19;40.20
71151;BME280;59071;42.138;24.768;2023-03-16T11:33:34;99095.69;;;13.43;39.05
71151;BME280;59071;42.138;24.768;2023-03-16T11:38:49;99094.56;;;13.67;38.85
71151;BME280;59071;42.138;24.768;2023-03-16T11:41:43;99092.34;;;13.36;39.30
71151;BME280;59071;42.138;24.768;2023-03-16T11:46:41;99090.47;;;13.48;38.87
71151;BME280;59071;42.138;24.768;2023-03-16T11:54:28;99098.34;;;12.90;40.06
71151;BME280;59071;42.138;24.768;2023-03-16T11:57:01;99096.06;;;13.23;39.69
71151;BME280;59071;42.138;24.768;2023-03-16T12:17:30;99112.94;;;13.00;39.14
71151;BME280;59071;42.138;24.768;2023-03-16T12:22:36;99117.16;;;12.72;39.58
71151;BME280;59071;42.138;24.768;2023-03-16T12:25:03;99116.06;;;12.26;40.58
71151;BME280;59071;42.138;24.768;2023-03-16T12:27:32;99120.75;;;12.66;39.72
71151;BME280;59071;42.138;24.768;2023-03-16T12:50:08;99138.03;;;12.87;40.14
71151;BME280;59071;42.138;24.768;2023-03-16T12:52:39;99138.50;;;12.60;40.62
71151;BME280;59071;42.138;24.768;2023-03-16T12:55:06;99144.53;;;12.79;40.24
71151;BME280;59071;42.138;24.768;2023-03-16T12:57:32;99140.34;;;13.07;39.85
71151;BME280;59071;42.138;24.768;2023-03-16T12:59:57;99141.19;;;12.72;39.97
71151;BME280;59071;42.138;24.768;2023-03-16T13:02:25;99142.13;;;12.89;39.77
71151;BME280;59071;42.138;24.768;2023-03-16T13:04:57;99147.44;;;13.01;39.83
71151;BME280;59071;42.138;24.768;2023-03-16T13:07:26;99144.19;;;12.40;39.94
71151;BME280;59071;42.138;24.768;2023-03-16T13:09:55;99143.44;;;12.21;40.45
71151;BME280;59071;42.138;24.768;2023-03-16T13:12:22;99147.00;;;12.03;41.42
71151;BME280;59071;42.138;24.768;2023-03-16T13:14:48;99152.06;;;12.35;40.66
71151;BME280;59071;42.138;24.768;2023-03-16T13:19:44;99158.13;;;13.01;40.05
71151;BME280;59071;42.138;24.768;2023-03-16T13:22:24;99164.19;;;12.19;40.95
71151;BME280;59071;42.138;24.768;2023-03-16T13:27:28;99158.84;;;11.59;42.96
71151;BME280;59071;42.138;24.768;2023-03-16T13:29:57;99165.53;;;11.80;42.37
71151;BME280;59071;42.138;24.768;2023-03-16T13:32:23;99168.97;;;11.68;42.16
71151;BME280;59071;42.138;24.768;2023-03-16T13:34:51;99167.94;;;11.69;42.34
71151;BME280;59071;42.138;24.768;2023-03-16T13:37:19;99177.44;;;11.47;42.79
71151;BME280;59071;42.138;24.768;2023-03-16T13:39:58;99165.97;;;11.46;42.51
71151;BME280;59071;42.138;24.768;2023-03-16T13:42:25;99177.00;;;11.31;42.99
71151;BME280;59071;42.138;24.768;2023-03-16T13:44:55;99187.41;;;11.51;42.58
71151;BME280;59071;42.138;24.768;2023-03-16T13:47:20;99191.19;;;11.62;42.56
71151;BME280;59071;42.138;24.768;2023-03-16T13:49:50;99194.59;;;11.51;42.99
71151;BME280;59071;42.138;24.768;2023-03-16T13:54:44;99204.25;;;10.65;44.40
71151;BME280;59071;42.138;24.768;2023-03-16T13:57:10;99200.03;;;10.75;44.66
71151;BME280;59071;42.138;24.768;2023-03-16T13:59:36;99199.19;;;10.82;44.57
71151;BME280;59071;42.138;24.768;2023-03-16T14:02:02;99199.34;;;10.87;44.59
71151;BME280;59071;42.138;24.768;2023-03-16T14:04:28;99195.19;;;11.16;43.64
71151;BME280;59071;42.138;24.768;2023-03-16T14:06:58;99206.44;;;11.18;44.10